Time;durP1;ratioP1;P1;durP2;ratioP2;P2;SDS_P1;SDS_P2;PMS_P1;PMS_P2;Temp;Humidity;BMP_temperature;BMP_pressure;BME280_temperature;BME280_humidity;BME280_pressure;Samples;Min_cycle;Max_cycle;Signal;HPM_P1;HPM_P2
2024/01/23 00:02:17;;;;;;;;;0.00;0.00;;;;;10.77;100.00;102369.22;6187616;22;45197;-90
2024/01/23 00:04:46;;;;;;;;;0.00;0.00;;;;;10.84;100.00;102370.94;6212567;22;45706;-91
2024/01/23 00:07:11;;;;;;;;;0.00;0.00;;;;;10.81;100.00;102387.44;6212958;22;45213;-91
2024/01/23 00:09:40;;;;;;;;;0.00;0.00;;;;;10.77;100.00;102398.75;6187522;22;45382;-90
2024/01/23 00:12:16;;;;;;;;;0.00;0.00;;;;;10.75;100.00;102402.22;6213016;22;45256;-91
2024/01/23 00:15:42;;;;;;;;;;;;;;;;;;;;;
2024/01/23 00:18:10;;;;;;;;;0.00;0.00;;;;;10.69;100.00;102403.09;6170415;23;72081;-92
2024/01/23 00:20:48;;;;;;;;;0.00;0.00;;;;;10.70;100.00;102416.97;6156661;23;45422;-91
2024/01/23 00:23:29;;;;;;;;;0.00;0.00;;;;;10.55;100.00;102394.44;6182073;23;45418;-92
2024/01/23 00:26:22;;;;;;;;;0.00;0.00;;;;;10.54;100.00;102398.78;6156426;23;47708;-90
2024/01/23 00:28:59;;;;;;;;;0.00;0.00;;;;;10.54;100.00;102401.41;6182195;23;45249;-92
2024/01/23 00:31:55;;;;;;;;;0.00;0.00;;;;;10.49;100.00;102410.94;6174386;23;45388;-92
2024/01/23 00:34:35;;;;;;;;;0.00;0.00;;;;;10.58;100.00;102415.28;6154169;23;45365;-91
2024/01/23 00:37:18;;;;;;;;;0.00;0.00;;;;;10.61;100.00;102405.72;6155689;23;47110;-92
2024/01/23 00:39:55;;;;;;;;;0.00;0.00;;;;;10.65;100.00;102412.66;6156892;23;45420;-90
2024/01/23 00:42:21;;;;;;;;;0.00;0.00;;;;;10.72;100.00;102415.28;6182539;23;45431;-91
2024/01/23 00:45:00;;;;;;;;;0.00;0.00;;;;;10.73;100.00;102416.97;6173091;23;45426;-91
2024/01/23 00:47:26;;;;;;;;;0.00;0.00;;;;;10.77;100.00;102409.16;6154228;23;47500;-90
2024/01/23 00:50:22;;;;;;;;;0.00;0.00;;;;;10.81;100.00;102421.31;6176354;23;45594;-92
2024/01/23 00:53:21;;;;;;;;;0.00;0.00;;;;;10.84;100.00;102410.84;6199842;23;45104;-90
2024/01/23 00:55:47;;;;;;;;;0.00;0.00;;;;;10.79;100.00;102423.06;6208903;22;44784;-90
2024/01/23 00:58:14;;;;;;;;;0.00;0.00;;;;;10.73;100.00;102433.47;6234923;22;45204;-91
2024/01/23 01:00:44;;;;;;;;;0.00;0.00;;;;;10.72;100.00;102433.50;6210963;22;45430;-91
2024/01/23 01:03:19;;;;;;;;;0.00;0.00;;;;;10.68;100.00;102431.75;6236912;22;44667;-93
2024/01/23 01:05:57;;;;;;;;;0.00;0.00;;;;;10.70;100.00;102443.03;6229060;22;45338;-93
2024/01/23 01:08:22;;;;;;;;;0.00;0.00;;;;;10.63;100.00;102439.59;6191133;22;47235;-92
2024/01/23 01:11:06;;;;;;;;;0.00;0.00;;;;;10.64;100.00;102446.50;6187415;22;45559;-93
2024/01/23 01:14:21;;;;;;;;;0.00;0.00;;;;;10.62;100.00;102445.66;6214645;22;45356;-93
2024/01/23 01:20:20;;;;;;;;;0.00;0.00;;;;;10.49;100.00;102454.34;6141588;23;46285;-92
2024/01/23 01:23:16;;;;;;;;;;;;;;;;;;;;;
2024/01/23 01:26:41;;;;;;;;;0.00;0.00;;;;;10.43;100.00;102439.59;6147734;23;68225;-91
2024/01/23 01:29:08;;;;;;;;;0.00;0.00;;;;;10.43;100.00;102453.47;6006554;23;45524;-92
2024/01/23 01:31:51;;;;;;;;;0.00;0.00;;;;;10.38;100.00;102455.25;6006144;23;45545;-91
2024/01/23 01:34:19;;;;;;;;;0.00;0.00;;;;;10.37;100.00;102452.63;5982560;23;45161;-92
2024/01/23 01:47:00;;;;;;;;;;;;;;;;;;;;;
2024/01/23 01:53:03;;;;;;;;;0.00;0.00;;;;;10.25;100.00;102484.69;5812215;24;45877;-92
2024/01/23 01:57:01;;;;;;;;;;;;;;;;;;;;;
2024/01/23 02:00:53;;;;;;;;;;;;;;;;;;;;;
2024/01/23 02:03:45;;;;;;;;;;;;;;;;;;;;;
2024/01/23 02:07:01;;;;;;;;;0.00;0.00;;;;;10.19;100.00;102498.56;5890710;24;69495;-92
2024/01/23 02:17:39;;;;;;;;;;;;;;;;;;;;;
2024/01/23 02:21:09;;;;;;;;;;;;;;;;;;;;;
2024/01/23 03:09:16;;;;;;;;;0.00;0.00;;;;;9.98;100.00;102545.38;5360915;22;18499841;-93
2024/01/23 03:16:04;;;;;;;;;;;;;;;;;;;;;
2024/01/23 03:25:35;;;;;;;;;;;;;;;;;;;;;
2024/01/23 03:28:47;;;;;;;;;;;;;;;;;;;;;
2024/01/23 03:32:21;;;;;;;;;;;;;;;;;;;;;
2024/01/23 03:38:05;;;;;;;;;0.00;0.00;;;;;9.84;100.00;102541.03;5814429;24;45540;-92
2024/01/23 03:41:09;;;;;;;;;;;;;;;;;;;;;
2024/01/23 03:44:25;;;;;;;;;;;;;;;;;;;;;
2024/01/23 03:51:01;;;;;;;;;0.00;0.00;;;;;9.77;100.00;102562.66;5725931;24;45590;-93
2024/01/23 03:54:05;;;;;;;;;;;;;;;;;;;;;
2024/01/23 04:00:53;;;;;;;;;;;;;;;;;;;;;
2024/01/23 04:07:08;;;;;;;;;0.00;0.00;;;;;9.82;100.00;102579.13;5750386;24;45659;-93
2024/01/23 04:13:39;;;;;;;;;;;;;;;;;;;;;
2024/01/23 04:16:38;;;;;;;;;;;;;;;;;;;;;
2024/01/23 04:19:57;;;;;;;;;;;;;;;;;;;;;
2024/01/23 04:22:35;;;;;;;;;0.00;0.00;;;;;9.99;100.00;102604.34;5762286;24;73289;-93
2024/01/23 04:28:48;;;;;;;;;0.00;0.00;;;;;10.01;100.00;102600.00;5759752;24;45350;-92
2024/01/23 04:35:23;;;;;;;;;;;;;;;;;;;;;
2024/01/23 04:38:22;;;;;;;;;;;;;;;;;;;;;
2024/01/23 04:41:41;;;;;;;;;0.00;0.00;;;;;9.97;100.00;102608.66;5811867;24;69280;-92
2024/01/23 04:44:39;;;;;;;;;;;;;;;;;;;;;
2024/01/23 04:47:46;;;;;;;;;0.00;0.00;;;;;10.10;100.00;102627.81;5864791;24;75416;-92
2024/01/23 04:50:48;;;;;;;;;0.00;0.00;;;;;10.23;100.00;102630.47;5867717;24;45382;-92
2024/01/23 04:56:53;;;;;;;;;0.00;0.00;;;;;10.20;100.00;102642.59;5839488;24;45590;-92
2024/01/23 05:00:10;;;;;;;;;0.00;0.00;;;;;10.26;100.00;102661.69;5839392;24;45562;-93
2024/01/23 05:06:21;;;;;;;;;0.00;0.00;;;;;10.25;100.00;102659.97;5811882;24;45231;-92
2024/01/23 05:12:19;;;;;;;;;0.00;0.00;;;;;10.22;100.00;102656.47;5807584;24;46468;-92
2024/01/23 05:15:11;;;;;;;;;;;;;;;;;;;;;
2024/01/23 05:18:26;;;;;;;;;;;;;;;;;;;;;
2024/01/23 05:20:52;;;;;;;;;0.00;0.00;;;;;10.15;100.00;102662.53;5825218;24;45401;-92
2024/01/23 05:24:02;;;;;;;;;0.00;0.00;;;;;10.12;100.00;102654.69;5833773;24;47894;-93
2024/01/23 05:26:40;;;;;;;;;;;;;;;;;;;;;
2024/01/23 05:35:37;;;;;;;;;0.00;0.00;;;;;10.08;100.00;102685.03;5812839;24;46335;-92
2024/01/23 05:38:28;;;;;;;;;;;;;;;;;;;;;
2024/01/23 05:41:30;;;;;;;;;0.00;0.00;;;;;10.18;100.00;102697.22;5812430;24;67928;-92
2024/01/23 05:44:14;;;;;;;;;0.00;0.00;;;;;10.14;100.00;102692.88;5998297;23;45612;-93
2024/01/23 05:47:14;;;;;;;;;0.00;0.00;;;;;10.22;100.00;102706.78;5983853;23;48045;-92
2024/01/23 05:50:09;;;;;;;;;0.00;0.00;;;;;10.17;100.00;102699.81;5963139;23;45400;-92
2024/01/23 05:52:44;;;;;;;;;0.00;0.00;;;;;10.16;100.00;102705.88;5982796;23;45428;-92
2024/01/23 05:55:49;;;;;;;;;;;;;;;;;;;;;
2024/01/23 05:58:34;;;;;;;;;;;;;;;;;;;;;
2024/01/23 06:01:24;;;;;;;;;0.00;0.00;;;;;10.21;100.00;102725.00;5977441;23;73090;-93
2024/01/23 06:04:02;;;;;;;;;;;;;;;;;;;;;
2024/01/23 06:06:58;;;;;;;;;;;;;;;;;;;;;
2024/01/23 06:09:34;;;;;;;;;0.00;0.00;;;;;10.31;100.00;102728.53;6076335;23;75393;-92
2024/01/23 06:12:43;;;;;;;;;0.00;0.00;;;;;10.29;100.00;102731.13;6067928;23;45468;-92
2024/01/23 06:15:53;;;;;;;;;0.00;0.00;;;;;10.33;100.00;102725.09;6092954;23;45369;-93
2024/01/23 06:18:30;;;;;;;;;0.00;0.00;;;;;10.37;100.00;102733.78;6071553;23;45264;-92
2024/01/23 06:21:43;;;;;;;;;;;;;;;;;;;;;
2024/01/23 06:24:47;;;;;;;;;;;;;;;;;;;;;
2024/01/23 06:27:45;;;;;;;;;0.00;0.00;;;;;10.43;100.00;102725.97;6071531;23;68023;-93
2024/01/23 06:37:11;;;;;;;;;0.00;0.00;;;;;10.41;100.00;102731.19;6034056;23;45406;-93
2024/01/23 06:39:39;;;;;;;;;0.00;0.00;;;;;10.44;100.00;102732.94;6011200;23;45484;-91
2024/01/23 06:42:32;;;;;;;;;0.00;0.00;;;;;10.45;100.00;102729.47;6010591;23;45236;-93
2024/01/23 06:45:00;;;;;;;;;0.00;0.00;;;;;10.46;100.00;102734.69;6022863;23;45781;-85
2024/01/23 06:47:25;;;;;;;;;0.00;0.00;;;;;10.52;100.00;102741.63;6009230;23;45900;-86
2024/01/23 06:49:51;;;;;;;;;0.00;0.00;;;;;10.50;100.00;102745.97;6008942;23;45245;-88
2024/01/23 06:52:16;;;;;;;;;0.00;0.00;;;;;10.55;100.00;102745.97;6032549;23;47154;-87
2024/01/23 06:54:41;;;;;;;;;0.00;0.00;;;;;11.20;100.00;102740.03;5984190;23;47233;-84
2024/01/23 06:57:07;;;;;;;;;0.00;0.00;;;;;10.61;100.00;102744.28;6031636;23;61882;-87
2024/01/23 06:59:32;;;;;;;;;0.00;0.00;;;;;10.60;100.00;102745.13;6007147;23;61832;-85
2024/01/23 07:01:58;;;;;;;;;0.00;0.00;;;;;10.56;100.00;102743.38;5983101;23;68684;-84
2024/01/23 07:04:23;;;;;;;;;0.00;0.00;;;;;10.56;100.00;102747.72;6031775;23;47030;-86
2024/01/23 07:06:49;;;;;;;;;0.00;0.00;;;;;10.64;100.00;102756.41;6008370;23;45285;-86
2024/01/23 07:09:14;;;;;;;;;0.00;0.00;;;;;10.75;100.00;102753.84;6030260;23;69348;-86
2024/01/23 07:11:40;;;;;;;;;0.25;0.00;;;;;10.78;100.00;102772.09;6008233;23;45472;-87
2024/01/23 07:14:06;;;;;;;;;0.00;0.00;;;;;10.70;100.00;102766.00;6070396;23;48173;-88
2024/01/23 07:17:05;;;;;;;;;0.00;0.00;;;;;10.56;100.00;102773.78;6123727;23;45385;-88
2024/01/23 07:19:30;;;;;;;;;0.00;0.00;;;;;10.55;100.00;102772.00;6118778;23;45260;-90
2024/01/23 07:22:05;;;;;;;;;;;;;;;;;;;;;
2024/01/23 07:28:06;;;;;;;;;;;;;;;;;;;;;
2024/01/23 07:31:05;;;;;;;;;;;;;;;;;;;;;
2024/01/23 07:34:03;;;;;;;;;;;;;;;;;;;;;
2024/01/23 07:37:18;;;;;;;;;;;;;;;;;;;;;
2024/01/23 07:59:54;;;;;;;;;;;;;;;;;;;;;
2024/01/23 08:03:19;;;;;;;;;;;;;;;;;;;;;
2024/01/23 08:22:51;;;;;;;;;;;;;;;;;;;;;
2024/01/23 08:33:18;;;;;;;;;;;;;;;;;;;;;
2024/01/23 09:19:30;;;;;;;;;0.00;0.00;;;;;11.80;100.00;102828.69;5134008;27;45217;-88
2024/01/23 09:21:56;;;;;;;;;0.00;0.00;;;;;11.81;100.00;102820.00;5114515;27;45914;-88
2024/01/23 09:24:24;;;;;;;;;0.00;0.00;;;;;11.92;100.00;102820.03;5117099;27;45489;-88
2024/01/23 09:26:49;;;;;;;;;0.00;0.00;;;;;11.93;100.00;102816.53;5116396;27;45341;-87
2024/01/23 09:29:15;;;;;;;;;0.00;0.00;;;;;12.00;100.00;102827.84;5096216;27;46193;-87
2024/01/23 09:31:45;;;;;;;;;0.00;0.00;;;;;11.98;100.00;102816.53;5092741;27;45476;-87
2024/01/23 09:34:10;;;;;;;;;0.00;0.00;;;;;12.00;100.00;102823.50;5086588;27;45371;-86
2024/01/23 09:36:35;;;;;;;;;0.00;0.00;;;;;12.00;100.00;102818.28;5078917;27;45308;-86
2024/01/23 09:39:01;;;;;;;;;0.00;0.00;;;;;12.00;100.00;102813.06;5077866;27;68535;-87
2024/01/23 09:41:26;;;;;;;;;0.00;0.00;;;;;11.99;100.00;102823.50;5089237;27;45529;-89
2024/01/23 09:43:52;;;;;;;;;0.00;0.00;;;;;12.08;100.00;102813.03;5099882;27;45377;-87
2024/01/23 09:46:18;;;;;;;;;0.00;0.00;;;;;12.01;100.00;102804.34;5094587;27;45319;-87
2024/01/23 09:48:45;;;;;;;;;0.00;0.00;;;;;12.04;100.00;102810.44;5093778;27;45701;-86
2024/01/23 09:51:13;;;;;;;;;0.00;0.00;;;;;12.05;100.00;102815.63;5095391;27;46084;-86
2024/01/23 09:53:41;;;;;;;;;0.00;0.00;;;;;12.05;100.00;102802.59;5113825;27;45347;-86
2024/01/23 09:56:07;;;;;;;;;0.00;0.00;;;;;12.04;100.00;102790.44;5091383;27;45312;-86
2024/01/23 09:58:32;;;;;;;;;0.00;0.00;;;;;12.01;100.00;102778.22;5068269;27;47021;-87
2024/01/23 10:00:59;;;;;;;;;0.00;0.00;;;;;12.05;100.00;102778.22;5094899;27;45441;-85
2024/01/23 10:03:26;;;;;;;;;0.00;0.00;;;;;12.06;100.00;102787.81;5080374;27;45476;-87
2024/01/23 10:05:55;;;;;;;;;0.00;0.00;;;;;12.10;100.00;102781.72;5112489;27;45309;-85
2024/01/23 10:08:25;;;;;;;;;0.00;0.00;;;;;12.10;100.00;102777.34;5077771;27;47408;-86
2024/01/23 10:10:59;;;;;;;;;0.00;0.00;;;;;12.08;100.00;102773.00;5112365;27;45695;-86
2024/01/23 10:13:24;;;;;;;;;0.00;0.00;;;;;12.08;100.00;102786.06;5076684;27;45632;-86
2024/01/23 10:15:53;;;;;;;;;0.00;0.00;;;;;12.14;100.00;102783.44;5121405;27;45546;-86
2024/01/23 10:18:18;;;;;;;;;0.00;0.00;;;;;13.78;100.00;102780.69;5106833;27;45456;-87
2024/01/23 10:20:45;;;;;;;;;0.00;0.00;;;;;13.96;100.00;102782.28;5063601;27;45646;-86
2024/01/23 10:23:11;;;;;;;;;0.00;0.00;;;;;13.87;100.00;102776.25;5080849;27;45316;-86
2024/01/23 10:25:38;;;;;;;;;0.00;0.00;;;;;12.43;100.00;102774.66;5098272;27;45611;-86
2024/01/23 10:28:08;;;;;;;;;0.00;0.00;;;;;12.28;100.00;102778.19;5083793;27;47543;-87
2024/01/23 10:30:33;;;;;;;;;0.00;0.00;;;;;12.22;100.00;102788.63;5081933;27;45574;-88
2024/01/23 10:33:03;;;;;;;;;0.00;0.00;;;;;12.18;100.00;102782.53;5071764;27;45414;-90
2024/01/23 10:35:33;;;;;;;;;0.00;0.00;;;;;12.19;100.00;102786.91;5084287;27;45471;-89
2024/01/23 10:38:00;;;;;;;;;0.00;0.00;;;;;12.20;100.00;102796.47;5120472;27;47086;-88
2024/01/23 10:40:26;;;;;;;;;0.00;0.00;;;;;12.16;100.00;102795.59;5085018;27;45465;-89
2024/01/23 10:42:51;;;;;;;;;0.00;0.00;;;;;12.06;100.00;102804.34;5081874;27;45693;-89
2024/01/23 10:45:17;;;;;;;;;0.00;0.00;;;;;12.02;100.00;102802.63;5082027;27;45475;-89
2024/01/23 10:47:43;;;;;;;;;0.00;0.00;;;;;11.95;100.00;102803.50;5064800;27;46904;-89
2024/01/23 10:50:08;;;;;;;;;0.00;0.00;;;;;11.90;100.00;102768.69;5081143;27;45525;-90
2024/01/23 10:52:39;;;;;;;;;0.00;0.00;;;;;11.87;100.00;102750.38;5081562;27;45350;-86
2024/01/23 10:55:06;;;;;;;;;0.00;0.00;;;;;11.83;100.00;102723.47;5080974;27;45484;-87
2024/01/23 10:57:35;;;;;;;;;0.00;0.00;;;;;11.77;100.00;102721.72;5080462;27;47122;-88
2024/01/23 11:00:04;;;;;;;;;0.00;0.00;;;;;11.77;100.00;102728.69;5061328;28;45671;-88
2024/01/23 11:02:31;;;;;;;;;0.00;0.00;;;;;11.78;100.00;102736.50;5094424;27;45465;-89
2024/01/23 11:04:58;;;;;;;;;0.00;0.00;;;;;11.78;100.00;102743.47;5060631;28;45358;-86
2024/01/23 11:07:25;;;;;;;;;0.00;0.00;;;;;11.79;100.00;102739.97;5078010;27;45634;-87
2024/01/23 11:10:23;;;;;;;;;1.00;1.00;;;;;11.79;100.00;102730.44;5082571;27;45402;-87
2024/01/23 11:13:27;;;;;;;;;0.00;0.00;;;;;11.84;100.00;102704.31;5076217;27;45620;-88
2024/01/23 11:15:53;;;;;;;;;0.00;0.00;;;;;11.86;100.00;102697.34;5084648;27;45448;-87
2024/01/23 11:18:28;;;;;;;;;0.00;0.00;;;;;11.97;100.00;102698.22;5080005;27;46743;-86
2024/01/23 11:21:09;;;;;;;;;0.00;0.00;;;;;12.08;100.00;102700.78;5080371;27;45631;-84
2024/01/23 11:23:39;;;;;;;;;0.00;0.00;;;;;12.17;100.00;102676.41;5097888;27;45421;-86
2024/01/23 11:26:12;;;;;;;;;1.25;1.25;;;;;12.25;100.00;102673.75;5079420;27;45403;-86
2024/01/23 11:28:38;;;;;;;;;0.00;0.00;;;;;12.23;100.00;102676.34;5086042;27;46369;-86
2024/01/23 11:31:17;;;;;;;;;0.00;0.00;;;;;12.26;100.00;102678.06;5079127;27;45818;-85
2024/01/23 11:33:42;;;;;;;;;0.00;0.00;;;;;12.23;100.00;102671.13;5091949;27;45588;-87
2024/01/23 11:36:12;;;;;;;;;0.00;0.00;;;;;12.21;100.00;102662.44;5088353;27;45579;-88
2024/01/23 11:38:45;;;;;;;;;0.00;0.00;;;;;12.20;100.00;102647.63;5062962;27;47334;-88
2024/01/23 11:41:28;;;;;;;;;0.00;0.00;;;;;12.14;100.00;102660.72;5098306;27;45380;-87
2024/01/23 11:44:04;;;;;;;;;0.00;0.00;;;;;12.14;100.00;102665.94;5098153;27;45512;-89
2024/01/23 11:46:36;;;;;;;;;0.00;0.00;;;;;12.17;100.00;102665.94;5063645;27;45732;-88
2024/01/23 11:49:12;;;;;;;;;;;;;;;;;;;;;
2024/01/23 11:52:07;;;;;;;;;0.00;0.00;;;;;12.18;100.00;102650.28;5060788;28;71549;-88
2024/01/23 11:54:50;;;;;;;;;0.00;0.00;;;;;12.19;100.00;102632.88;5052030;27;45365;-89
2024/01/23 11:57:15;;;;;;;;;18.00;18.00;;;;;12.20;100.00;102634.59;5075983;27;45615;-88
2024/01/23 11:59:42;;;;;;;;;0.00;0.00;;;;;12.22;100.00;102616.31;5086344;27;52433;-87
2024/01/23 12:02:10;;;;;;;;;0.00;0.00;;;;;12.36;100.00;102622.31;5096603;27;45678;-89
2024/01/23 12:04:35;;;;;;;;;0.00;0.00;;;;;12.32;100.00;102625.84;5062618;27;69699;-92
2024/01/23 12:07:01;;;;;;;;;0.00;0.00;;;;;12.32;100.00;102620.59;5064475;27;45603;-90
2024/01/23 12:09:30;;;;;;;;;0.00;0.00;;;;;12.35;100.00;102620.56;5080215;27;52565;-90
2024/01/23 12:12:03;;;;;;;;;0.00;0.00;;;;;12.34;100.00;102613.63;5096436;27;45351;-94
2024/01/23 12:14:38;;;;;;;;;0.00;0.00;;;;;12.32;100.00;102626.69;5089507;27;45491;-90
2024/01/23 12:17:04;;;;;;;;;0.00;0.00;;;;;12.24;100.00;102627.59;5081295;27;45289;-90
2024/01/23 12:19:46;;;;;;;;;0.00;0.00;;;;;12.28;100.00;102617.16;5106083;27;48385;-86
2024/01/23 12:22:21;;;;;;;;;1.00;1.00;;;;;12.26;100.00;102621.53;5080321;27;45346;-86
2024/01/23 12:24:46;;;;;;;;;0.00;0.00;;;;;12.25;100.00;102622.38;5079643;27;45408;-85
2024/01/23 12:27:11;;;;;;;;;0.00;0.00;;;;;12.20;100.00;102621.53;5095326;27;64143;-87
2024/01/23 12:29:41;;;;;;;;;3.00;3.00;;;;;12.17;100.00;102598.06;5060027;27;73272;-86
2024/01/23 12:32:11;;;;;;;;;0.00;0.00;;;;;12.15;100.00;102603.28;5075001;27;45362;-86
2024/01/23 12:34:39;;;;;;;;;0.00;0.00;;;;;12.01;100.00;102600.75;5096926;27;45408;-88
2024/01/23 12:37:04;;;;;;;;;0.00;0.00;;;;;12.13;100.00;102605.06;5094265;27;45374;-87
2024/01/23 12:39:30;;;;;;;;;0.00;0.00;;;;;12.19;100.00;102594.56;5074912;27;46754;-86
2024/01/23 12:42:00;;;;;;;;;0.00;0.00;;;;;12.23;100.00;102602.38;5096664;27;45413;-87
2024/01/23 12:44:26;;;;;;;;;0.00;0.00;;;;;12.16;100.00;102605.00;5096367;27;45422;-86
2024/01/23 12:46:51;;;;;;;;;0.00;0.00;;;;;12.24;100.00;102611.94;5092680;27;48648;-85
2024/01/23 12:49:20;;;;;;;;;0.00;0.00;;;;;12.15;100.00;102568.50;5089371;27;66136;-84
2024/01/23 12:51:51;;;;;;;;;0.00;0.00;;;;;12.08;100.00;102533.72;5060663;27;45726;-84
2024/01/23 12:54:17;;;;;;;;;0.00;0.00;;;;;12.12;100.00;102509.31;5094395;27;45378;-83
2024/01/23 12:56:42;;;;;;;;;0.00;0.00;;;;;12.14;100.00;102517.16;5073138;27;45612;-83
2024/01/23 12:59:08;;;;;;;;;0.00;0.00;;;;;12.14;100.00;102506.72;5061639;27;64216;-85
2024/01/23 13:01:34;;;;;;;;;3.00;0.00;;;;;12.15;100.00;102522.38;5090687;27;45769;-85
2024/01/23 13:04:02;;;;;;;;;0.00;0.00;;;;;12.15;100.00;102503.25;5077838;27;45333;-84
2024/01/23 13:06:28;;;;;;;;;0.00;0.00;;;;;12.13;100.00;102491.94;5063047;27;45441;-85
2024/01/23 13:08:53;;;;;;;;;0.00;0.00;;;;;12.11;100.00;102494.56;5075122;27;47368;-84
2024/01/23 13:11:19;;;;;;;;;0.00;0.00;;;;;12.13;100.00;102478.88;5045727;28;74081;-83
2024/01/23 13:13:47;;;;;;;;;0.00;0.00;;;;;12.18;100.00;102472.75;5080952;27;45492;-83
2024/01/23 13:16:13;;;;;;;;;0.00;0.00;;;;;12.19;100.00;102455.34;5095154;27;45272;-83
2024/01/23 13:18:39;;;;;;;;;0.00;0.00;;;;;12.21;100.00;102450.97;5073847;27;45315;-81
2024/01/23 13:21:05;;;;;;;;;0.00;0.00;;;;;12.31;100.00;102455.25;5082151;27;45322;-82
2024/01/23 13:23:31;;;;;;;;;0.00;0.00;;;;;12.30;100.00;102468.31;5095591;27;45453;-83
2024/01/23 13:25:56;;;;;;;;;0.00;0.00;;;;;12.38;100.00;102463.88;5076806;27;45435;-83
2024/01/23 13:28:22;;;;;;;;;0.00;0.00;;;;;12.33;100.00;102457.81;5084900;27;46093;-83
2024/01/23 13:30:48;;;;;;;;;0.00;0.00;;;;;12.40;100.00;102469.94;5085847;27;45767;-82
2024/01/23 13:33:15;;;;;;;;;0.00;0.00;;;;;12.48;100.00;102459.44;5102775;27;45598;-81
2024/01/23 13:35:41;;;;;;;;;0.50;0.50;;;;;12.47;100.00;102444.66;5094294;27;45518;-81
2024/01/23 13:38:06;;;;;;;;;0.00;0.00;;;;;12.54;100.00;102441.09;5094305;27;71936;-83
2024/01/23 13:40:32;;;;;;;;;1.00;0.75;;;;;12.62;100.00;102446.25;5102403;27;45410;-82
2024/01/23 13:42:58;;;;;;;;;0.00;0.00;;;;;12.64;100.00;102452.31;5094577;27;45755;-83
2024/01/23 13:45:24;;;;;;;;;0.00;0.00;;;;;12.69;100.00;102448.78;5071077;27;45490;-83
2024/01/23 13:47:49;;;;;;;;;0.00;0.00;;;;;12.63;100.00;102437.50;5074733;27;46195;-83
2024/01/23 13:50:20;;;;;;;;;0.00;0.00;;;;;12.63;100.00;102427.94;5076299;27;45439;-84
2024/01/23 13:52:49;;;;;;;;;0.00;0.00;;;;;12.75;100.00;102424.31;5094903;27;45447;-84
2024/01/23 13:55:15;;;;;;;;;0.00;0.00;;;;;12.77;100.00;102420.81;5094288;27;45553;-84
2024/01/23 13:57:40;;;;;;;;;0.00;0.00;;;;;12.82;100.00;102417.28;5113155;27;45300;-84
2024/01/23 14:00:06;;;;;;;;;0.00;0.00;;;;;12.90;100.00;102415.44;5079060;27;45491;-83
2024/01/23 14:02:32;;;;;;;;;0.00;0.00;;;;;12.86;100.00;102416.38;5103245;27;45393;-83
2024/01/23 14:04:59;;;;;;;;;0.00;0.00;;;;;12.91;100.00;102396.28;5058728;28;72330;-83
2024/01/23 14:07:25;;;;;;;;;0.00;0.00;;;;;12.95;100.00;102390.97;5082206;27;46437;-83
2024/01/23 14:09:50;;;;;;;;;0.00;0.00;;;;;12.98;100.00;102377.00;5097772;27;45449;-83
2024/01/23 14:12:15;;;;;;;;;0.00;0.00;;;;;13.05;100.00;102373.41;5097554;27;45543;-84
2024/01/23 14:14:41;;;;;;;;;0.00;0.00;;;;;13.07;100.00;102373.41;5096149;27;70455;-82
2024/01/23 14:17:06;;;;;;;;;0.00;0.00;;;;;13.13;100.00;102376.81;5085196;27;74683;-83
2024/01/23 14:19:32;;;;;;;;;0.00;0.00;;;;;13.27;100.00;102378.38;5090392;27;68544;-83
2024/01/23 14:21:57;;;;;;;;;0.00;0.00;;;;;13.35;100.00;102373.91;5067525;27;71537;-84
2024/01/23 14:24:22;;;;;;;;;0.00;0.00;;;;;13.32;100.00;102361.75;5064858;27;59269;-85
2024/01/23 14:26:48;;;;;;;;;0.00;0.00;;;;;13.42;100.00;102359.00;5098332;27;46264;-84
2024/01/23 14:29:13;;;;;;;;;0.00;0.00;;;;;14.98;100.00;102351.84;5078759;27;65070;-84
2024/01/23 14:31:38;;;;;;;;;0.00;0.00;;;;;13.66;100.00;102348.16;5091674;27;58331;-85
2024/01/23 14:34:04;;;;;;;;;0.00;0.00;;;;;13.62;100.00;102366.56;5076548;27;45603;-83
2024/01/23 14:36:29;;;;;;;;;0.00;0.00;;;;;13.64;100.00;102367.41;5081967;27;60349;-83
2024/01/23 14:38:55;;;;;;;;;0.00;0.00;;;;;13.62;100.00;102354.34;5085787;27;51037;-84
2024/01/23 14:41:21;;;;;;;;;0.00;0.00;;;;;13.64;100.00;102352.56;5075809;27;45433;-84
2024/01/23 14:43:46;;;;;;;;;0.00;0.00;;;;;13.63;100.00;102350.84;5097731;27;45510;-83
2024/01/23 14:46:19;;;;;;;;;0.00;0.00;;;;;13.64;100.00;102347.31;5076294;28;51465;-88
2024/01/23 14:48:44;;;;;;;;;0.00;0.00;;;;;13.70;100.00;102352.44;5060614;28;45685;-83
2024/01/23 14:51:09;;;;;;;;;6.00;0.00;;;;;13.66;100.00;102353.41;5102117;27;45414;-84
2024/01/23 14:53:35;;;;;;;;;0.00;0.00;;;;;13.68;100.00;102359.47;5084746;27;69268;-84
2024/01/23 14:56:00;;;;;;;;;0.00;0.00;;;;;13.73;100.00;102341.94;5093946;27;55739;-87
2024/01/23 14:58:28;;;;;;;;;0.00;0.00;;;;;13.75;100.00;102348.00;5093885;27;45448;-88
2024/01/23 15:01:03;;;;;;;;;0.00;0.00;;;;;13.78;100.00;102347.13;5080933;27;45632;-88
2024/01/23 15:03:29;;;;;;;;;0.00;0.00;;;;;13.63;100.00;102349.97;5064801;27;45558;-88
2024/01/23 15:05:56;;;;;;;;;0.00;0.00;;;;;13.69;100.00;102361.19;5098460;27;46315;-86
2024/01/23 15:08:26;;;;;;;;;0.00;0.00;;;;;14.50;100.00;102373.75;5085428;27;45266;-87
2024/01/23 15:10:51;;;;;;;;;0.00;0.00;;;;;13.86;100.00;102381.00;5091211;27;45606;-87
2024/01/23 15:13:16;;;;;;;;;0.00;0.00;;;;;13.82;100.00;102379.31;5047456;28;58861;-87
2024/01/23 15:15:42;;;;;;;;;0.00;0.00;;;;;13.81;100.00;102390.69;5106486;27;46849;-87
2024/01/23 15:18:11;;;;;;;;;0.00;0.00;;;;;13.71;100.00;102388.22;5098680;27;45290;-87
2024/01/23 15:20:40;;;;;;;;;0.00;0.00;;;;;13.70;100.00;102414.41;5083217;27;45433;-89
2024/01/23 15:23:05;;;;;;;;;0.00;0.00;;;;;13.73;100.00;102403.88;5080509;27;45267;-88
2024/01/23 15:25:38;;;;;;;;;0.00;0.00;;;;;13.63;100.00;102386.59;5061829;28;47057;-88
2024/01/23 15:28:04;;;;;;;;;0.00;0.00;;;;;13.73;100.00;102370.72;5082625;27;45728;-88
2024/01/23 15:30:31;;;;;;;;;0.00;0.00;;;;;13.68;100.00;102395.25;5056420;27;45347;-88
2024/01/23 15:32:58;;;;;;;;;0.00;0.00;;;;;13.69;100.00;102405.69;5098040;27;45938;-87
2024/01/23 15:35:23;;;;;;;;;0.00;0.00;;;;;13.69;100.00;102381.28;5073694;27;47392;-88
2024/01/23 15:37:49;;;;;;;;;0.00;0.00;;;;;13.67;100.00;102378.69;5096291;27;45498;-87
2024/01/23 15:40:14;;;;;;;;;0.00;0.00;;;;;13.66;100.00;102384.78;5086352;27;45516;-88
2024/01/23 15:42:40;;;;;;;;;0.00;0.00;;;;;13.66;100.00;102371.72;5097452;27;45592;-87
2024/01/23 15:45:08;;;;;;;;;0.00;0.00;;;;;13.66;100.00;102369.09;5091953;27;48115;-87
2024/01/23 15:47:36;;;;;;;;;0.00;0.00;;;;;13.62;100.00;102374.41;5067793;28;45292;-88
2024/01/23 15:50:05;;;;;;;;;0.00;0.00;;;;;13.60;100.00;102370.97;5064321;27;45328;-90
2024/01/23 15:52:31;;;;;;;;;0.00;0.00;;;;;13.61;100.00;102368.28;5077837;27;45516;-85
2024/01/23 15:54:56;;;;;;;;;0.00;0.00;;;;;13.54;100.00;102372.78;5072493;27;45517;-84
2024/01/23 15:57:21;;;;;;;;;0.00;0.00;;;;;13.58;100.00;102357.00;5060486;27;74629;-84
2024/01/23 15:59:47;;;;;;;;;0.00;0.00;;;;;13.66;100.00;102360.38;5077081;27;69226;-85
2024/01/23 16:02:12;;;;;;;;;0.00;0.00;;;;;13.63;100.00;102357.81;5090173;27;65268;-85
2024/01/23 16:04:37;;;;;;;;;0.00;0.00;;;;;13.62;100.00;102353.47;5058304;27;69315;-84
2024/01/23 16:07:03;;;;;;;;;0.00;0.00;;;;;13.58;100.00;102357.00;5094005;27;67162;-86
2024/01/23 16:09:29;;;;;;;;;0.00;0.00;;;;;13.62;100.00;102343.88;5082580;27;45373;-85
2024/01/23 16:11:54;;;;;;;;;0.00;0.00;;;;;13.63;100.00;102334.25;5082492;27;45249;-86
2024/01/23 16:14:20;;;;;;;;;0.00;0.00;;;;;13.61;100.00;102326.44;5096544;27;47022;-87
2024/01/23 16:16:45;;;;;;;;;0.00;0.00;;;;;13.60;100.00;102326.47;5057263;27;45496;-87
2024/01/23 16:19:11;;;;;;;;;0.00;0.00;;;;;13.73;100.00;102335.84;5095832;27;45514;-85
2024/01/23 16:21:36;;;;;;;;;0.00;0.00;;;;;13.77;100.00;102327.06;5095761;27;45426;-85
2024/01/23 16:24:01;;;;;;;;;0.00;0.00;;;;;13.69;100.00;102319.34;5060399;27;47155;-86
2024/01/23 16:26:27;;;;;;;;;0.00;0.00;;;;;13.67;100.00;102328.97;5071311;27;45421;-86
2024/01/23 16:28:52;;;;;;;;;0.00;0.00;;;;;13.65;100.00;102337.72;5078795;27;45446;-86
2024/01/23 16:31:17;;;;;;;;;0.00;0.00;;;;;13.66;100.00;102342.91;5056827;28;66378;-88
2024/01/23 16:33:43;;;;;;;;;0.00;0.00;;;;;13.62;100.00;102337.78;5077121;27;45612;-86
2024/01/23 16:36:09;;;;;;;;;0.00;0.00;;;;;13.71;100.00;102351.56;5078406;27;45397;-88